createdAt,value
2017-08-18T15:59:43.485Z,81.62
2017-08-18T16:02:11.870Z,82.02
2017-08-18T16:04:41.014Z,82.34
2017-08-18T16:07:09.430Z,83.02
2017-08-18T16:09:37.817Z,83.50
2017-08-18T16:12:06.192Z,83.12
2017-08-18T16:14:34.572Z,82.63
2017-08-18T16:17:02.950Z,82.72
2017-08-18T16:19:31.321Z,82.35
2017-08-18T16:21:59.731Z,82.03
2017-08-18T16:24:28.878Z,81.90
2017-08-18T16:26:57.292Z,82.24
2017-08-18T16:29:25.664Z,82.79
2017-08-18T16:31:54.055Z,83.83
2017-08-18T16:34:22.427Z,84.09
2017-08-18T16:36:50.818Z,84.00
2017-08-18T16:39:19.198Z,83.86
2017-08-18T16:41:47.575Z,83.77
2017-08-18T16:44:15.985Z,82.99
2017-08-18T16:46:45.113Z,83.38
2017-08-18T16:49:13.481Z,83.76
2017-08-18T16:51:41.897Z,83.01
2017-08-18T16:54:10.271Z,83.13
2017-08-18T16:56:38.637Z,81.91
2017-08-18T16:59:07.084Z,82.05
2017-08-18T17:01:35.467Z,81.87
2017-08-18T17:04:03.879Z,81.86
2017-08-18T17:06:32.279Z,81.83
2017-08-18T17:09:00.676Z,80.99
2017-08-18T17:11:29.065Z,80.38
2017-08-18T17:13:57.500Z,80.61
2017-08-18T17:16:25.891Z,81.80
2017-08-18T17:18:54.284Z,82.73
2017-08-18T17:21:22.694Z,82.93
2017-08-18T17:23:51.088Z,84.19
2017-08-18T17:26:19.487Z,84.29
2017-08-18T17:28:47.877Z,83.90
2017-08-18T17:31:16.292Z,83.67
2017-08-18T17:33:44.681Z,82.97
2017-08-18T17:36:13.079Z,82.30
2017-08-18T17:38:41.459Z,81.75
2017-08-18T17:41:09.837Z,81.11
2017-08-18T17:43:38.242Z,82.46
2017-08-18T17:46:06.633Z,82.83
2017-08-18T17:48:35.001Z,83.70
2017-08-18T17:51:03.405Z,83.76
2017-08-18T17:53:32.544Z,83.83
2017-08-18T17:56:00.919Z,76.76
2017-08-18T17:58:30.152Z,78.88
2017-08-18T18:00:58.525Z,78.42
2017-08-18T18:03:26.888Z,78.60
2017-08-18T18:05:55.288Z,78.79
2017-08-18T18:08:23.668Z,79.94
2017-08-18T18:10:52.039Z,81.40
2017-08-18T18:13:20.436Z,83.19
2017-08-18T18:15:48.806Z,82.79
2017-08-18T18:18:17.177Z,82.45
2017-08-18T18:20:45.576Z,82.54
2017-08-18T18:23:13.941Z,82.46
2017-08-18T18:25:42.310Z,82.76
2017-08-18T18:28:10.737Z,81.78
2017-08-18T18:30:39.115Z,82.38
2017-08-18T18:33:07.536Z,81.29
2017-08-18T18:35:35.916Z,81.02
2017-08-18T18:38:04.299Z,79.98
2017-08-18T18:40:32.711Z,80.37
2017-08-18T18:43:01.099Z,80.51
2017-08-18T18:45:29.476Z,81.08
2017-08-18T18:47:57.869Z,82.41
2017-08-18T18:50:26.248Z,82.16
2017-08-18T18:52:54.624Z,81.52
2017-08-18T18:55:23.020Z,81.27
2017-08-18T18:57:51.404Z,80.37
2017-08-18T19:00:19.781Z,80.26
2017-08-18T19:02:48.187Z,80.67
2017-08-18T19:05:16.557Z,80.80
2017-08-18T19:07:44.921Z,80.65
2017-08-18T19:10:13.331Z,80.84
2017-08-18T19:12:41.721Z,81.71
2017-08-18T19:15:10.089Z,81.77
2017-08-18T19:17:38.478Z,81.67
2017-08-18T19:20:06.861Z,81.23
2017-08-18T19:22:35.224Z,82.08
2017-08-18T19:25:03.618Z,82.47
2017-08-18T19:27:31.986Z,81.89
2017-08-18T19:30:00.368Z,81.77
2017-08-18T19:32:29.563Z,81.81
2017-08-18T19:34:57.929Z,82.21
2017-08-18T19:37:26.322Z,81.95
2017-08-18T19:39:54.729Z,82.01
2017-08-18T19:42:23.109Z,82.40
2017-08-18T19:44:51.475Z,82.99
2017-08-18T19:47:20.643Z,82.81
2017-08-18T19:49:49.017Z,82.76
2017-08-18T19:52:17.381Z,82.32
2017-08-18T19:54:45.790Z,82.44
2017-08-18T19:57:14.155Z,82.25
2017-08-18T19:59:42.547Z,82.65
2017-08-18T20:02:10.938Z,82.25
2017-08-18T20:04:39.316Z,81.81
2017-08-18T20:07:07.684Z,81.86
2017-08-18T20:09:36.087Z,81.49
2017-08-18T20:12:04.472Z,81.48
2017-08-18T20:14:32.838Z,81.26
2017-08-18T20:17:01.229Z,80.63
2017-08-18T20:19:29.625Z,80.78
2017-08-18T20:21:58.772Z,81.05
2017-08-18T20:24:27.196Z,81.47
2017-08-18T20:26:55.576Z,81.33
2017-08-18T20:29:23.955Z,81.33
2017-08-18T20:31:52.349Z,81.06
2017-08-18T20:34:21.488Z,80.98
2017-08-18T20:36:49.868Z,80.94
2017-08-18T20:39:18.282Z,80.77
2017-08-18T20:41:46.687Z,80.56
2017-08-18T20:44:15.057Z,80.38
2017-08-18T20:46:43.474Z,79.94
2017-08-18T20:49:11.850Z,79.67
2017-08-18T20:51:40.223Z,79.61
2017-08-18T20:54:08.620Z,79.73
2017-08-18T20:56:36.977Z,79.82
2017-08-18T20:59:06.110Z,80.65
2017-08-18T21:01:34.516Z,80.39
2017-08-18T21:04:02.905Z,80.40
2017-08-18T21:06:31.282Z,81.35
2017-08-18T21:08:59.702Z,81.37
2017-08-18T21:11:28.841Z,81.14
2017-08-18T21:13:57.225Z,80.95
2017-08-18T21:16:25.615Z,81.33
2017-08-18T21:18:53.993Z,81.30
2017-08-18T21:21:22.374Z,81.78
2017-08-18T21:23:50.795Z,81.82
2017-08-18T21:26:19.165Z,81.78
2017-08-18T21:28:47.541Z,82.06
2017-08-18T21:31:15.961Z,82.91
2017-08-18T21:33:44.343Z,84.33
2017-08-18T21:36:12.717Z,84.60
2017-08-18T21:38:41.872Z,84.48
2017-08-18T21:41:11.039Z,85.00
2017-08-18T21:43:41.036Z,85.06
2017-08-18T21:46:09.480Z,84.71
2017-08-18T21:48:37.859Z,84.55
2017-08-18T21:51:06.304Z,84.36
2017-08-18T21:53:35.429Z,83.94
2017-08-18T21:56:03.848Z,83.58
2017-08-18T21:58:32.254Z,84.35
2017-08-18T22:01:00.649Z,84.84
2017-08-18T22:03:29.022Z,85.09
2017-08-18T22:05:57.432Z,85.17
2017-08-18T22:08:25.833Z,85.19
2017-08-18T22:10:54.214Z,85.37
2017-08-18T22:13:22.587Z,85.48
2017-08-18T22:15:50.997Z,85.24
2017-08-18T22:18:19.441Z,85.10
2017-08-18T22:20:47.821Z,84.63
2017-08-18T22:23:16.236Z,84.63
2017-08-18T22:25:44.611Z,84.67
2017-08-18T22:28:13.031Z,85.33
2017-08-18T22:30:41.429Z,85.03
2017-08-18T22:33:09.786Z,84.23
2017-08-18T22:35:38.148Z,84.57
2017-08-18T22:38:06.548Z,83.76
2017-08-18T22:40:34.912Z,83.50
2017-08-18T22:43:03.284Z,83.75
2017-08-18T22:45:31.702Z,84.00
2017-08-18T22:48:00.085Z,84.35
2017-08-18T22:50:28.505Z,84.13
2017-08-18T22:52:56.882Z,85.38
2017-08-18T22:55:25.281Z,83.90
2017-08-18T22:57:53.646Z,83.38
2017-08-18T23:00:22.007Z,82.84
2017-08-18T23:02:50.415Z,83.17
2017-08-18T23:05:18.801Z,83.30
2017-08-18T23:07:47.183Z,82.83
2017-08-18T23:10:15.576Z,82.44
2017-08-18T23:12:43.940Z,80.29
2017-08-18T23:15:12.303Z,80.24
2017-08-18T23:17:40.725Z,80.49
2017-08-18T23:20:09.101Z,80.74
2017-08-18T23:22:37.473Z,80.05
2017-08-18T23:25:05.876Z,79.64
2017-08-18T23:27:34.244Z,78.99
2017-08-18T23:30:02.630Z,79.71
2017-08-18T23:32:30.993Z,79.38
2017-08-18T23:34:59.425Z,79.78
2017-08-18T23:37:27.822Z,80.00
2017-08-18T23:39:56.203Z,79.98
2017-08-18T23:42:24.596Z,80.53
2017-08-18T23:44:53.456Z,80.96
2017-08-18T23:47:21.851Z,81.46
2017-08-18T23:49:50.228Z,82.12
2017-08-18T23:52:18.600Z,82.48
2017-08-18T23:54:47.005Z,82.00
2017-08-18T23:57:15.382Z,82.63
2017-08-18T23:59:43.769Z,82.27
